Time;durP1;ratioP1;P1;durP2;ratioP2;P2;SDS_P1;SDS_P2;PMS_P1;PMS_P2;Temp;Humidity;BMP_temperature;BMP_pressure;BME280_temperature;BME280_humidity;BME280_pressure;Samples;Min_cycle;Max_cycle;Signal;HPM_P1;HPM_P2
2023/01/09 00:00:15;;;;;;;;;1.33;0.00;;;;;24.20;38.69;99625.47;5137218;27;45494;-75
2023/01/09 00:02:40;;;;;;;;;0.00;0.00;;;;;24.22;38.61;99623.38;5137218;27;45519;-74
2023/01/09 00:05:10;;;;;;;;;0.00;0.00;;;;;24.19;38.50;99621.06;5137106;27;47311;-74
2023/01/09 00:07:36;;;;;;;;;0.00;0.00;;;;;24.15;38.64;99622.50;5137882;27;45563;-74
2023/01/09 00:10:01;;;;;;;;;0.00;0.00;;;;;24.11;38.77;99613.09;5133094;27;45722;-74
2023/01/09 00:12:27;;;;;;;;;0.00;0.00;;;;;24.10;38.41;99623.09;5126056;27;45502;-74
2023/01/09 00:14:52;;;;;;;;;0.00;0.00;;;;;24.05;38.60;99612.84;5138134;27;45464;-74
2023/01/09 00:17:18;;;;;;;;;0.00;0.00;;;;;24.16;38.38;99630.41;5136942;27;45516;-74
2023/01/09 00:19:43;;;;;;;;;0.00;0.00;;;;;24.14;38.58;99629.78;5112884;27;45402;-74
2023/01/09 00:22:08;;;;;;;;;0.00;0.00;;;;;24.13;38.71;99638.97;5135417;27;45451;-74
2023/01/09 00:24:37;;;;;;;;;0.00;0.00;;;;;24.13;38.81;99632.69;5131226;27;45430;-74
2023/01/09 00:27:03;;;;;;;;;0.00;0.00;;;;;24.09;38.75;99634.97;5129966;27;45489;-74
2023/01/09 00:29:28;;;;;;;;;0.00;0.00;;;;;24.05;38.86;99633.66;5133160;27;45490;-74
2023/01/09 00:31:54;;;;;;;;;0.00;0.00;;;;;24.07;38.45;99637.00;5129081;27;45715;-74
2023/01/09 00:34:19;;;;;;;;;0.00;0.00;;;;;23.95;38.23;99620.50;5111083;27;47376;-74
2023/01/09 00:36:44;;;;;;;;;0.00;0.00;;;;;24.10;38.72;99660.22;5135673;27;45815;-74
2023/01/09 00:39:10;;;;;;;;;0.00;0.00;;;;;24.05;38.67;99647.22;5123030;27;45506;-74
2023/01/09 00:41:45;;;;;;;;;0.00;0.00;;;;;24.11;38.65;99660.00;5133688;27;45453;-74
2023/01/09 00:44:18;;;;;;;;;0.67;0.00;;;;;24.14;38.44;99653.34;5137242;27;46721;-74
2023/01/09 00:46:49;;;;;;;;;0.00;0.00;;;;;24.04;38.72;99640.94;5128525;27;45519;-74
2023/01/09 00:49:15;;;;;;;;;0.00;0.00;;;;;24.10;38.44;99642.06;5134569;27;45475;-74
2023/01/09 00:51:41;;;;;;;;;0.00;0.00;;;;;24.13;38.43;99646.25;5133504;27;45529;-74
2023/01/09 00:54:10;;;;;;;;;0.33;0.33;;;;;23.98;38.89;99636.34;5127504;27;46106;-74
2023/01/09 00:56:36;;;;;;;;;0.00;0.00;;;;;24.04;38.67;99649.09;5133624;27;45592;-74
2023/01/09 00:59:03;;;;;;;;;0.00;0.00;;;;;24.07;38.56;99655.97;5135098;27;45594;-74
2023/01/09 01:01:28;;;;;;;;;0.00;0.00;;;;;24.08;38.54;99660.38;5135764;27;45753;-74
2023/01/09 01:03:54;;;;;;;;;0.00;0.00;;;;;24.03;38.59;99657.44;5136201;27;45444;-74
2023/01/09 01:09:04;;;;;;;;;0.00;0.00;;;;;24.03;38.55;99668.28;5135603;27;45468;-74
2023/01/09 01:11:31;;;;;;;;;0.67;0.67;;;;;23.99;38.68;99672.41;5134783;27;45481;-74
2023/01/09 01:13:57;;;;;;;;;0.00;0.00;;;;;23.99;38.60;99667.81;5135880;27;45572;-74
2023/01/09 01:16:22;;;;;;;;;0.00;0.00;;;;;24.00;38.22;99669.50;5111680;27;45711;-74
2023/01/09 01:18:48;;;;;;;;;0.00;0.00;;;;;24.01;38.59;99664.91;5132591;27;45506;-74
2023/01/09 01:21:13;;;;;;;;;0.00;0.00;;;;;23.97;38.58;99671.75;5133540;27;45633;-74
2023/01/09 01:23:39;;;;;;;;;0.00;0.00;;;;;23.97;38.45;99661.75;5127139;27;46229;-74
2023/01/09 01:26:10;;;;;;;;;0.00;0.00;;;;;23.97;38.19;99669.91;5131348;27;46137;-75
2023/01/09 01:28:36;;;;;;;;;0.67;0.00;;;;;23.93;38.69;99647.78;5131834;27;45825;-75
2023/01/09 01:31:02;;;;;;;;;0.00;0.00;;;;;23.93;38.63;99665.91;5135196;27;45744;-75
2023/01/09 01:33:27;;;;;;;;;0.67;0.67;;;;;23.60;38.59;99610.44;5133764;27;46147;-74
2023/01/09 01:36:08;;;;;;;;;1.00;1.00;;;;;23.72;38.22;99632.41;5131648;27;45795;-74
2023/01/09 01:38:35;;;;;;;;;0.00;0.00;;;;;23.75;38.54;99636.59;5134728;27;45385;-74
2023/01/09 01:41:01;;;;;;;;;0.33;0.33;;;;;23.86;38.93;99662.31;5134996;27;45385;-74
2023/01/09 01:43:33;;;;;;;;;0.00;0.00;;;;;23.78;38.60;99653.28;5135219;27;46189;-74
2023/01/09 01:45:58;;;;;;;;;0.00;0.00;;;;;23.83;38.71;99663.56;5133225;27;45383;-74
2023/01/09 01:48:27;;;;;;;;;0.00;0.00;;;;;23.88;38.46;99676.50;5128243;27;45377;-75
2023/01/09 01:50:59;;;;;;;;;0.00;0.00;;;;;23.78;38.82;99665.97;5135000;27;45624;-74
2023/01/09 01:53:31;;;;;;;;;0.00;0.00;;;;;23.79;38.53;99678.53;5133068;27;45541;-74
2023/01/09 01:56:09;;;;;;;;;0.00;0.00;;;;;23.83;38.53;99679.81;5132775;27;45555;-74
2023/01/09 01:58:41;;;;;;;;;0.00;0.00;;;;;23.68;38.52;99661.78;5136661;27;45457;-74
2023/01/09 02:01:08;;;;;;;;;0.00;0.00;;;;;23.83;38.68;99682.53;5129341;27;45449;-74
2023/01/09 02:03:36;;;;;;;;;0.00;0.00;;;;;23.81;38.65;99692.69;5125818;27;46481;-74
2023/01/09 02:06:03;;;;;;;;;0.00;0.00;;;;;23.78;38.72;99696.63;5135130;27;45588;-74
2023/01/09 02:08:29;;;;;;;;;0.00;0.00;;;;;23.79;38.84;99687.47;5136380;27;45875;-74
2023/01/09 02:10:55;;;;;;;;;0.00;0.00;;;;;23.71;38.60;99687.63;5131489;27;46004;-74
2023/01/09 02:13:21;;;;;;;;;0.00;0.00;;;;;23.67;38.56;99680.94;5136999;27;46879;-74
2023/01/09 02:16:09;;;;;;;;;0.00;0.00;;;;;23.79;38.49;99708.31;5131906;27;45478;-74
2023/01/09 02:18:50;;;;;;;;;0.00;0.00;;;;;23.76;38.54;99703.28;5129876;27;45536;-74
2023/01/09 02:21:27;;;;;;;;;0.00;0.00;;;;;23.78;38.61;99718.31;5128602;27;45551;-74
2023/01/09 02:23:58;;;;;;;;;0.00;0.00;;;;;23.75;38.60;99715.97;5136481;27;46606;-74
2023/01/09 02:26:51;;;;;;;;;0.00;0.00;;;;;23.76;38.76;99717.69;5134335;27;45560;-74
2023/01/09 02:29:44;;;;;;;;;0.00;0.00;;;;;23.76;38.61;99714.13;5130739;27;45484;-74
2023/01/09 02:32:46;;;;;;;;;0.00;0.00;;;;;23.73;38.78;99717.22;5134721;27;45451;-74
2023/01/09 02:35:39;;;;;;;;;0.00;0.00;;;;;23.68;38.74;99709.69;5112914;27;47478;-74
2023/01/09 02:38:21;;;;;;;;;0.00;0.00;;;;;23.73;38.43;99717.22;5130283;27;45741;-74
2023/01/09 02:40:59;;;;;;;;;0.00;0.00;;;;;23.74;38.60;99721.63;5133404;27;45332;-74
2023/01/09 02:43:25;;;;;;;;;0.00;0.00;;;;;23.70;38.74;99723.84;5124774;27;45831;-74
2023/01/09 02:45:51;;;;;;;;;0.00;0.00;;;;;23.67;38.50;99721.56;5134836;27;46509;-74
2023/01/09 02:48:16;;;;;;;;;0.00;0.00;;;;;23.73;38.68;99731.59;5112852;27;45421;-74
2023/01/09 02:50:48;;;;;;;;;0.00;0.00;;;;;23.73;38.35;99737.03;5130407;27;45947;-74
2023/01/09 02:53:25;;;;;;;;;0.00;0.00;;;;;23.73;38.48;99728.91;5134715;27;45416;-74
2023/01/09 02:56:17;;;;;;;;;0.00;0.00;;;;;23.72;38.14;99737.22;5134449;27;46611;-74
2023/01/09 02:59:01;;;;;;;;;0.00;0.00;;;;;23.71;38.37;99739.09;5129210;27;45391;-74
2023/01/09 03:01:35;;;;;;;;;0.00;0.00;;;;;23.68;38.29;99729.50;5129622;27;45403;-75
2023/01/09 03:04:11;;;;;;;;;0.00;0.00;;;;;23.59;38.38;99717.13;5133248;27;45501;-74
2023/01/09 03:07:18;;;;;;;;;0.00;0.00;;;;;23.62;38.56;99705.06;5131694;27;47086;-75
2023/01/09 03:09:49;;;;;;;;;0.00;0.00;;;;;23.61;38.50;99709.63;5115945;27;45392;-74
2023/01/09 03:12:21;;;;;;;;;0.00;0.00;;;;;23.62;38.47;99708.56;5114404;27;46239;-74
2023/01/09 03:14:54;;;;;;;;;0.00;0.00;;;;;23.63;38.76;99712.97;5128748;27;45559;-75
2023/01/09 03:17:37;;;;;;;;;1.33;0.00;;;;;23.65;38.65;99715.47;5118882;27;46647;-74
2023/01/09 03:20:06;;;;;;;;;1.00;0.00;;;;;23.65;38.60;99729.88;5130537;27;45487;-74
2023/01/09 03:22:31;;;;;;;;;0.00;0.00;;;;;23.62;38.72;99722.13;5135592;27;45748;-74
2023/01/09 03:24:57;;;;;;;;;0.00;0.00;;;;;23.65;38.76;99719.03;5131816;27;45608;-74
2023/01/09 03:27:22;;;;;;;;;2.00;1.00;;;;;23.64;38.83;99724.66;5130044;27;46537;-74
2023/01/09 03:29:48;;;;;;;;;0.00;0.00;;;;;23.54;38.84;99716.84;5134192;27;45511;-74
2023/01/09 03:32:14;;;;;;;;;0.00;0.00;;;;;23.61;38.63;99734.00;5113129;27;45672;-74
2023/01/09 03:34:39;;;;;;;;;0.00;0.00;;;;;23.62;38.72;99732.13;5122952;27;45456;-74
2023/01/09 03:37:04;;;;;;;;;0.33;0.33;;;;;23.48;38.59;99725.72;5124413;27;46024;-76
2023/01/09 03:39:31;;;;;;;;;0.00;0.00;;;;;23.58;38.59;99738.97;5130049;27;45775;-75
2023/01/09 03:41:56;;;;;;;;;3.00;1.00;;;;;23.59;38.27;99741.50;5133161;27;45396;-74
2023/01/09 03:44:22;;;;;;;;;0.00;0.00;;;;;23.51;38.55;99738.91;5113090;27;45384;-74
2023/01/09 03:46:49;;;;;;;;;0.33;0.33;;;;;23.55;38.62;99749.13;5132683;27;45477;-74
2023/01/09 03:49:14;;;;;;;;;0.33;0.33;;;;;23.52;38.75;99752.25;5129013;27;45441;-75
2023/01/09 03:51:40;;;;;;;;;0.00;0.00;;;;;23.48;38.57;99742.84;5127368;27;45379;-74
2023/01/09 03:54:05;;;;;;;;;0.00;0.00;;;;;23.55;38.66;99749.13;5132550;27;45478;-74
2023/01/09 03:56:30;;;;;;;;;0.00;0.00;;;;;23.50;38.53;99743.47;5130265;27;46198;-73
2023/01/09 03:58:56;;;;;;;;;0.00;0.00;;;;;23.47;38.80;99753.84;5127743;27;45429;-74
2023/01/09 04:01:21;;;;;;;;;0.00;0.00;;;;;23.50;38.75;99751.59;5131889;27;45444;-74
2023/01/09 04:03:46;;;;;;;;;0.00;0.00;;;;;23.54;38.74;99765.59;5133810;27;45613;-74
2023/01/09 04:06:12;;;;;;;;;0.00;0.00;;;;;23.46;38.52;99750.28;5132457;27;46098;-74
2023/01/09 04:08:37;;;;;;;;;0.00;0.00;;;;;23.48;38.66;99756.38;5136392;27;45424;-74
2023/01/09 04:11:02;;;;;;;;;0.00;0.00;;;;;23.60;38.70;99772.09;5136995;27;45359;-74
2023/01/09 04:13:28;;;;;;;;;0.00;0.00;;;;;23.61;38.56;99780.03;5136157;27;45443;-74
2023/01/09 04:15:53;;;;;;;;;0.00;0.00;;;;;23.63;38.76;99785.28;5134386;27;45733;-75
2023/01/09 04:18:19;;;;;;;;;0.00;0.00;;;;;23.64;38.77;99776.09;5133512;27;45637;-74
2023/01/09 04:20:47;;;;;;;;;0.00;0.00;;;;;23.66;38.39;99780.31;5129895;27;45575;-74
2023/01/09 04:23:13;;;;;;;;;0.00;0.00;;;;;23.76;38.68;99793.53;5116757;27;45502;-74
2023/01/09 04:25:38;;;;;;;;;0.33;0.33;;;;;23.68;38.68;99783.69;5134261;27;45634;-74
2023/01/09 04:28:04;;;;;;;;;0.00;0.00;;;;;23.78;38.38;99796.88;5135388;27;47890;-73
2023/01/09 04:30:29;;;;;;;;;0.00;0.00;;;;;23.84;38.50;99800.69;5135856;27;45567;-74
2023/01/09 04:32:54;;;;;;;;;0.00;0.00;;;;;23.86;38.65;99798.63;5127320;27;45505;-73
2023/01/09 04:35:20;;;;;;;;;0.33;0.00;;;;;23.84;38.62;99791.72;5132496;27;46756;-74
2023/01/09 04:37:46;;;;;;;;;0.00;0.00;;;;;23.86;38.54;99795.91;5128557;27;46375;-74
2023/01/09 04:40:12;;;;;;;;;0.00;0.00;;;;;23.88;38.46;99790.31;5126348;27;45495;-74
2023/01/09 04:42:39;;;;;;;;;0.00;0.00;;;;;23.90;38.37;99793.66;5135957;27;45733;-74
2023/01/09 04:45:07;;;;;;;;;0.00;0.00;;;;;23.97;38.41;99793.72;5135246;27;45522;-74
2023/01/09 04:47:33;;;;;;;;;0.00;0.00;;;;;24.03;38.68;99793.78;5111054;27;45800;-74
2023/01/09 04:49:59;;;;;;;;;0.00;0.00;;;;;24.02;38.36;99794.81;5126584;27;45448;-74
2023/01/09 04:52:25;;;;;;;;;0.00;0.00;;;;;24.05;38.46;99782.75;5128569;27;45427;-73
2023/01/09 04:54:50;;;;;;;;;0.00;0.00;;;;;24.10;38.45;99793.03;5135089;27;45639;-73
2023/01/09 04:57:16;;;;;;;;;0.00;0.00;;;;;24.09;38.32;99781.34;5125841;27;45689;-73
2023/01/09 04:59:42;;;;;;;;;0.00;0.00;;;;;24.20;38.20;99804.38;5133857;27;45652;-75
2023/01/09 05:02:07;;;;;;;;;0.00;0.00;;;;;24.15;38.29;99796.00;5136457;27;45375;-74
2023/01/09 05:04:33;;;;;;;;;0.00;0.00;;;;;24.25;38.21;99809.22;5126785;27;47219;-74
2023/01/09 05:06:58;;;;;;;;;0.00;0.00;;;;;24.16;38.59;99789.53;5129598;27;45786;-74
2023/01/09 05:09:24;;;;;;;;;0.00;0.00;;;;;24.17;38.26;99783.09;5136882;27;45802;-74
2023/01/09 05:11:49;;;;;;;;;0.00;0.00;;;;;24.17;38.28;99785.78;5136296;27;45259;-73
2023/01/09 05:14:15;;;;;;;;;0.00;0.00;;;;;24.26;38.45;99800.03;5135518;27;46196;-73
2023/01/09 05:16:40;;;;;;;;;0.00;0.00;;;;;24.28;38.14;99809.66;5136697;27;45567;-73
2023/01/09 05:19:05;;;;;;;;;1.00;0.00;;;;;24.18;38.07;99792.88;5116159;27;45814;-73
2023/01/09 05:21:31;;;;;;;;;0.00;0.00;;;;;24.32;38.28;99819.06;5136590;27;45454;-73
2023/01/09 05:23:56;;;;;;;;;0.33;0.00;;;;;24.27;38.30;99821.53;5134546;27;45842;-74
2023/01/09 05:26:22;;;;;;;;;0.00;0.00;;;;;24.34;38.33;99830.56;5134351;27;45743;-74
2023/01/09 05:28:52;;;;;;;;;0.00;0.00;;;;;24.26;38.45;99821.72;5129880;27;45470;-74
2023/01/09 05:31:19;;;;;;;;;1.00;0.00;;;;;24.23;38.15;99812.13;5135510;27;45408;-74
2023/01/09 05:33:45;;;;;;;;;1.00;0.00;;;;;24.27;37.89;99823.44;5134544;27;46636;-74
2023/01/09 05:36:10;;;;;;;;;0.00;0.00;;;;;24.27;38.53;99824.25;5130661;27;45791;-74
2023/01/09 05:38:36;;;;;;;;;1.00;0.00;;;;;24.26;38.61;99827.16;5112903;27;45460;-74
2023/01/09 05:41:02;;;;;;;;;0.00;0.00;;;;;24.31;38.15;99839.09;5133847;27;45608;-74
2023/01/09 05:43:27;;;;;;;;;0.00;0.00;;;;;24.29;38.17;99843.03;5117758;27;46065;-73
2023/01/09 05:45:52;;;;;;;;;0.00;0.00;;;;;24.30;38.25;99850.13;5135736;27;45554;-73
2023/01/09 05:48:17;;;;;;;;;0.00;0.00;;;;;24.17;38.38;99832.72;5127202;27;45560;-73
2023/01/09 05:50:43;;;;;;;;;0.00;0.00;;;;;24.24;37.92;99846.34;5133972;27;45529;-73
2023/01/09 05:53:08;;;;;;;;;0.67;0.67;;;;;24.26;38.20;99855.13;5115314;27;47003;-73
2023/01/09 05:55:33;;;;;;;;;0.00;0.00;;;;;24.25;38.16;99856.16;5128287;27;45303;-74
2023/01/09 05:57:59;;;;;;;;;0.00;0.00;;;;;24.25;38.16;99849.88;5135144;27;45584;-74
2023/01/09 06:00:24;;;;;;;;;0.00;0.00;;;;;24.21;38.35;99844.00;5133457;27;45468;-73
2023/01/09 06:02:50;;;;;;;;;1.00;0.00;;;;;24.22;38.27;99856.53;5130785;27;46650;-74
2023/01/09 06:05:16;;;;;;;;;0.00;0.00;;;;;24.24;38.15;99859.91;5123832;27;45523;-74
2023/01/09 06:07:41;;;;;;;;;0.00;0.00;;;;;24.22;38.27;99867.38;5120477;27;45852;-74
2023/01/09 06:10:10;;;;;;;;;0.00;0.00;;;;;24.22;38.11;99859.25;5121445;27;45763;-73
2023/01/09 06:12:36;;;;;;;;;0.00;0.00;;;;;24.22;38.22;99864.66;5122109;27;45435;-74
2023/01/09 06:15:02;;;;;;;;;0.00;0.00;;;;;24.15;38.29;99861.88;5122611;27;45624;-73
2023/01/09 06:17:27;;;;;;;;;0.00;0.00;;;;;24.23;38.00;99871.75;5123060;27;45429;-74
2023/01/09 06:19:53;;;;;;;;;0.00;0.00;;;;;24.20;38.17;99864.84;5105911;27;45549;-74
2023/01/09 06:22:18;;;;;;;;;0.00;0.00;;;;;24.17;38.30;99861.69;5125908;27;46485;-74
2023/01/09 06:24:43;;;;;;;;;0.00;0.00;;;;;24.18;38.17;99864.22;5136319;27;45613;-73
2023/01/09 06:27:09;;;;;;;;;0.67;0.00;;;;;24.23;38.22;99874.47;5133349;27;46078;-74
2023/01/09 06:29:34;;;;;;;;;0.00;0.00;;;;;24.22;38.00;99889.06;5123834;27;45801;-74
2023/01/09 06:31:59;;;;;;;;;0.00;0.00;;;;;24.23;38.24;99892.63;5124532;27;55768;-75
2023/01/09 06:34:25;;;;;;;;;0.00;0.00;;;;;24.24;38.09;99884.31;5129897;27;45520;-75
2023/01/09 06:36:50;;;;;;;;;1.00;0.00;;;;;24.25;38.10;99901.41;5126972;27;45741;-74
2023/01/09 06:39:15;;;;;;;;;0.00;0.00;;;;;24.26;38.06;99900.34;5129517;27;45572;-74
2023/01/09 06:41:41;;;;;;;;;0.00;0.00;;;;;24.28;38.10;99901.84;5128415;27;45708;-73
2023/01/09 06:44:06;;;;;;;;;0.00;0.00;;;;;24.31;38.22;99914.16;5134582;27;45904;-72
2023/01/09 06:46:32;;;;;;;;;0.00;0.00;;;;;24.27;38.14;99921.03;5115367;27;45681;-73
2023/01/09 06:48:57;;;;;;;;;0.00;0.00;;;;;24.34;38.02;99932.78;5108409;27;46112;-73
2023/01/09 06:51:23;;;;;;;;;0.00;0.00;;;;;24.34;37.87;99930.91;5132084;27;45437;-73
2023/01/09 06:53:49;;;;;;;;;0.00;0.00;;;;;24.33;38.19;99933.81;5135005;27;45480;-73
2023/01/09 06:56:14;;;;;;;;;0.00;0.00;;;;;24.33;38.11;99934.63;5130041;27;45522;-74
2023/01/09 06:58:39;;;;;;;;;0.00;0.00;;;;;24.33;38.18;99940.06;5132216;27;45473;-74
2023/01/09 07:01:05;;;;;;;;;0.00;0.00;;;;;24.27;38.25;99927.28;5128841;27;46085;-74
2023/01/09 07:03:30;;;;;;;;;0.00;0.00;;;;;24.32;38.04;99943.00;5134252;27;45639;-73
2023/01/09 07:05:55;;;;;;;;;0.00;0.00;;;;;24.27;38.22;99937.31;5124399;27;45437;-73
2023/01/09 07:08:21;;;;;;;;;0.00;0.00;;;;;24.30;37.94;99942.31;5128056;27;45519;-75
2023/01/09 07:10:46;;;;;;;;;1.00;0.00;;;;;24.29;38.17;99949.63;5131030;27;50454;-75
2023/01/09 07:13:11;;;;;;;;;0.00;0.00;;;;;24.31;37.91;99950.28;5124781;27;47125;-73
2023/01/09 07:15:37;;;;;;;;;0.00;0.00;;;;;24.33;38.17;99956.31;5122004;27;45443;-75
2023/01/09 07:18:02;;;;;;;;;0.00;0.00;;;;;24.34;37.91;99958.03;5128383;27;45447;-75
2023/01/09 07:20:28;;;;;;;;;0.00;0.00;;;;;24.33;38.06;99959.03;5124029;27;46228;-74
2023/01/09 07:22:53;;;;;;;;;0.00;0.00;;;;;24.29;37.99;99965.06;5128628;27;45516;-77
2023/01/09 07:25:19;;;;;;;;;1.00;0.67;;;;;24.32;37.96;99970.09;5122480;27;45385;-81
2023/01/09 07:27:44;;;;;;;;;0.00;0.00;;;;;24.31;38.13;99957.56;5130747;27;45697;-76
2023/01/09 07:30:10;;;;;;;;;0.67;0.00;;;;;24.28;38.02;99966.91;5129905;27;45505;-77
2023/01/09 07:32:37;;;;;;;;;0.00;0.00;;;;;24.31;38.04;99966.53;5132228;27;45382;-76
2023/01/09 07:35:03;;;;;;;;;0.00;0.00;;;;;24.29;38.20;99965.91;5117875;27;45480;-76
2023/01/09 07:37:28;;;;;;;;;1.00;0.00;;;;;24.31;38.18;99982.81;5126550;27;45394;-77
2023/01/09 07:39:53;;;;;;;;;0.00;0.00;;;;;24.32;37.90;99980.94;5131176;27;46140;-77
2023/01/09 07:42:19;;;;;;;;;1.00;0.00;;;;;24.28;38.17;99969.63;5128813;27;47122;-79
2023/01/09 07:44:44;;;;;;;;;1.33;0.00;;;;;24.32;37.97;99972.81;5130339;27;45543;-76
2023/01/09 07:47:09;;;;;;;;;0.00;0.00;;;;;24.29;37.85;99971.34;5131556;27;45476;-77
2023/01/09 07:49:35;;;;;;;;;0.00;0.00;;;;;24.28;38.14;99980.47;5133192;27;45750;-74
2023/01/09 07:52:00;;;;;;;;;1.33;1.00;;;;;24.28;38.29;99985.91;5127571;27;45354;-77
2023/01/09 07:54:25;;;;;;;;;2.33;1.33;;;;;24.29;38.02;99987.59;5134492;27;45508;-77
2023/01/09 07:56:51;;;;;;;;;1.67;1.00;;;;;24.34;38.16;99997.84;5133345;27;45319;-81
2023/01/09 07:59:16;;;;;;;;;1.00;1.00;;;;;24.27;38.15;100005.09;5136759;27;45481;-81
2023/01/09 08:01:41;;;;;;;;;0.33;0.33;;;;;24.40;38.20;100013.34;5116884;27;45416;-76
2023/01/09 08:04:07;;;;;;;;;1.67;0.67;;;;;24.45;38.25;100026.34;5129578;27;45396;-76
2023/01/09 08:06:32;;;;;;;;;3.00;2.00;;;;;24.48;38.24;100034.09;5131976;27;45430;-76
2023/01/09 08:08:59;;;;;;;;;1.00;1.00;;;;;24.48;38.42;100045.78;5115909;27;48073;-76
2023/01/09 08:11:24;;;;;;;;;3.00;2.67;;;;;24.48;38.31;100045.78;5128163;27;45453;-75
2023/01/09 08:13:50;;;;;;;;;2.00;2.00;;;;;24.51;38.03;100062.69;5132566;27;47046;-75
2023/01/09 08:16:15;;;;;;;;;3.67;1.67;;;;;24.53;38.28;100063.38;5133748;27;45419;-76
2023/01/09 08:18:41;;;;;;;;;2.33;2.00;;;;;24.55;38.05;100064.00;5116832;27;48540;-75
2023/01/09 08:21:06;;;;;;;;;4.00;1.00;;;;;24.54;38.56;100076.75;5135192;27;45740;-75
2023/01/09 08:23:31;;;;;;;;;4.33;1.00;;;;;24.53;38.16;100075.06;5125947;27;46013;-76
2023/01/09 08:25:57;;;;;;;;;3.00;1.33;;;;;24.49;37.75;100065.63;5133233;27;45420;-77
2023/01/09 08:28:22;;;;;;;;;1.67;0.33;;;;;24.46;38.21;100069.56;5130561;27;45487;-78
2023/01/09 08:30:47;;;;;;;;;3.33;1.00;;;;;24.52;37.96;100076.06;5135544;27;45465;-69
2023/01/09 08:33:13;;;;;;;;;6.67;3.67;;;;;24.52;38.08;100081.50;5133429;27;45485;-68
2023/01/09 08:35:38;;;;;;;;;6.33;1.33;;;;;24.55;38.07;100083.84;5137309;27;45521;-68
2023/01/09 08:38:04;;;;;;;;;2.67;1.33;;;;;24.53;37.85;100075.06;5128707;27;51957;-68
2023/01/09 08:40:29;;;;;;;;;1.67;1.33;;;;;24.60;38.19;100092.25;5135499;27;45518;-69
2023/01/09 08:48:22;;;;;;;;;2.00;0.00;;;;;24.61;38.25;100083.06;5131789;27;45592;-68
2023/01/09 08:50:48;;;;;;;;;1.00;1.00;;;;;24.63;38.38;100074.75;5129407;27;45753;-70
2023/01/09 08:53:14;;;;;;;;;1.33;1.33;;;;;24.70;38.26;100088.38;5126996;27;45468;-67
2023/01/09 08:55:39;;;;;;;;;1.00;0.00;;;;;24.72;38.13;100092.59;5134201;27;45472;-68
2023/01/09 08:58:05;;;;;;;;;5.00;2.67;;;;;24.72;38.58;100087.16;5132750;27;45531;-69
2023/01/09 09:00:30;;;;;;;;;2.00;2.00;;;;;24.74;38.27;100103.25;5133638;27;46626;-69
2023/01/09 09:02:58;;;;;;;;;2.00;1.00;;;;;24.75;38.64;100110.34;5132518;27;46059;-69
2023/01/09 09:05:25;;;;;;;;;1.00;1.00;;;;;24.74;38.37;100112.22;5135398;27;45838;-69
2023/01/09 09:07:55;;;;;;;;;2.00;2.00;;;;;24.70;38.25;100107.38;5122112;27;45320;-68
2023/01/09 09:10:22;;;;;;;;;1.00;1.00;;;;;24.74;38.29;100114.09;5127597;27;45370;-67
2023/01/09 09:12:50;;;;;;;;;3.00;1.00;;;;;24.76;38.54;100116.63;5124783;27;45263;-69
2023/01/09 09:15:19;;;;;;;;;1.67;1.00;;;;;24.89;38.69;100134.97;5132643;27;45618;-68
2023/01/09 09:17:47;;;;;;;;;2.00;1.00;;;;;24.99;38.74;100127.34;5123822;27;47077;-68
2023/01/09 09:20:13;;;;;;;;;3.00;1.00;;;;;25.12;38.48;100143.75;5127369;27;45670;-67
2023/01/09 09:22:38;;;;;;;;;2.67;1.00;;;;;25.24;38.16;100145.94;5107789;27;45333;-68
2023/01/09 09:25:04;;;;;;;;;4.00;1.00;;;;;25.30;38.56;100145.16;5136719;27;45308;-68
2023/01/09 09:27:30;;;;;;;;;1.00;1.00;;;;;25.32;38.31;100148.53;5131542;27;45744;-68
2023/01/09 09:29:56;;;;;;;;;3.33;2.00;;;;;25.41;38.08;100160.09;5131188;27;45479;-67
2023/01/09 09:32:21;;;;;;;;;2.33;2.33;;;;;25.43;38.20;100158.03;5122651;27;45399;-67
2023/01/09 09:34:47;;;;;;;;;1.33;1.33;;;;;25.45;37.97;100164.13;5130583;27;45452;-67
2023/01/09 09:37:12;;;;;;;;;4.00;2.00;;;;;25.49;37.96;100167.28;5129073;27;45529;-68
2023/01/09 09:39:37;;;;;;;;;16.00;10.00;;;;;25.50;37.97;100166.25;5123611;27;45562;-68
2023/01/09 09:45:36;;;;;;;;;27.67;22.00;;;;;25.48;37.84;100176.47;5130506;27;45363;-67
2023/01/09 09:48:10;;;;;;;;;26.33;23.67;;;;;25.45;37.41;100183.13;5132796;27;46151;-68
2023/01/09 09:50:48;;;;;;;;;35.67;26.33;;;;;25.44;37.25;100180.59;5126111;27;45458;-68
2023/01/09 09:53:34;;;;;;;;;28.67;19.67;;;;;25.41;37.27;100187.25;5136206;27;45417;-69
2023/01/09 09:56:01;;;;;;;;;18.67;17.33;;;;;25.39;37.40;100195.59;5136157;27;45605;-68
2023/01/09 09:58:29;;;;;;;;;27.33;20.00;;;;;25.38;37.38;100206.69;5122639;27;46244;-69
2023/01/09 10:00:57;;;;;;;;;23.33;19.33;;;;;25.39;37.46;100195.59;5125780;27;45481;-67
2023/01/09 10:03:35;;;;;;;;;21.33;17.33;;;;;25.42;37.84;100215.28;5120210;27;47162;-67
2023/01/09 10:06:07;;;;;;;;;26.67;18.67;;;;;25.43;37.50;100211.53;5126594;27;45734;-68
2023/01/09 10:08:45;;;;;;;;;20.33;16.00;;;;;25.49;37.72;100221.59;5132219;27;46087;-68
2023/01/09 10:11:32;;;;;;;;;26.33;18.00;;;;;25.51;37.50;100235.84;5125670;27;45769;-68
2023/01/09 10:14:04;;;;;;;;;23.67;15.00;;;;;25.53;37.77;100242.78;5129901;27;45842;-68
2023/01/09 10:16:42;;;;;;;;;21.33;15.67;;;;;25.53;37.71;100245.50;5117263;27;45582;-68
2023/01/09 10:19:54;;;;;;;;;24.00;16.50;;;;;25.57;37.48;100247.84;5111953;27;46076;-68
2023/01/09 10:23:13;;;;;;;;;19.00;15.00;;;;;25.57;37.33;100250.56;5130147;27;46078;-67
2023/01/09 10:25:48;;;;;;;;;24.00;20.67;;;;;25.57;37.29;100258.69;5132457;27;45584;-67
2023/01/09 10:28:32;;;;;;;;;22.67;17.67;;;;;25.58;37.64;100260.41;5129532;27;45413;-67
2023/01/09 10:31:07;;;;;;;;;23.00;18.33;;;;;25.57;37.62;100259.56;5120272;27;46365;-67
2023/01/09 10:34:05;;;;;;;;;23.67;18.67;;;;;25.58;37.62;100257.69;5117179;27;45492;-67
2023/01/09 10:36:53;;;;;;;;;21.67;14.33;;;;;25.61;37.98;100279.88;5127314;27;45481;-67
2023/01/09 10:39:46;;;;;;;;;20.00;17.33;;;;;25.63;37.82;100296.81;5133621;27;45421;-68
2023/01/09 10:42:25;;;;;;;;;20.67;16.67;;;;;25.65;37.87;100294.75;5122913;27;45415;-67
2023/01/09 10:45:01;;;;;;;;;18.00;14.67;;;;;25.71;37.79;100295.03;5132994;27;45397;-67
2023/01/09 10:47:31;;;;;;;;;18.67;14.67;;;;;25.75;37.96;100293.59;5129184;27;45809;-67
2023/01/09 10:49:58;;;;;;;;;17.67;14.00;;;;;25.80;38.23;100288.41;5130830;27;45873;-68
2023/01/09 10:52:31;;;;;;;;;18.00;15.67;;;;;25.88;37.84;100301.84;5134455;27;46441;-68
2023/01/09 10:55:01;;;;;;;;;17.67;16.00;;;;;25.94;38.14;100297.53;5128624;27;45505;-71
2023/01/09 10:57:36;;;;;;;;;22.00;18.33;;;;;26.00;37.85;100290.47;5134904;27;45324;-68
2023/01/09 11:00:02;;;;;;;;;19.00;13.00;;;;;26.04;37.99;100283.59;5126835;27;45439;-69
2023/01/09 11:02:34;;;;;;;;;22.33;19.67;;;;;26.13;37.55;100285.16;5127401;27;46242;-68
2023/01/09 11:04:59;;;;;;;;;26.33;17.00;;;;;26.18;37.93;100295.41;5128766;27;45447;-68
2023/01/09 11:07:36;;;;;;;;;19.00;16.33;;;;;26.22;37.80;100296.72;5114029;27;45941;-68
2023/01/09 11:10:10;;;;;;;;;24.00;18.00;;;;;26.25;37.75;100298.22;5135348;27;45452;-69
2023/01/09 11:12:36;;;;;;;;;23.00;16.67;;;;;26.24;37.51;100300.06;5110309;27;47342;-67
2023/01/09 11:15:14;;;;;;;;;23.33;18.67;;;;;26.25;37.51;100299.06;5127725;27;45442;-67
2023/01/09 11:17:39;;;;;;;;;24.00;19.00;;;;;26.26;37.50;100310.78;5122803;27;45470;-67
2023/01/09 11:20:21;;;;;;;;;22.67;19.00;;;;;26.24;37.19;100310.94;5113262;27;46303;-67
2023/01/09 11:22:52;;;;;;;;;21.67;18.00;;;;;26.26;37.47;100306.19;5130301;27;45475;-68
2023/01/09 11:25:19;;;;;;;;;21.67;18.33;;;;;26.26;37.51;100306.19;5124329;27;45411;-68
2023/01/09 11:28:05;;;;;;;;;23.67;15.33;;;;;26.26;37.68;100308.91;5120169;27;45545;-68
2023/01/09 11:30:53;;;;;;;;;20.67;14.00;;;;;26.28;37.42;100312.25;5134733;27;45310;-68
2023/01/09 11:33:23;;;;;;;;;16.33;16.33;;;;;26.29;37.45;100307.69;5135592;27;46203;-68
2023/01/09 11:36:01;;;;;;;;;18.67;15.33;;;;;26.35;37.68;100304.16;5131500;27;45391;-68
2023/01/09 11:38:28;;;;;;;;;18.67;16.00;;;;;26.36;37.62;100308.53;5121404;27;45522;-69
2023/01/09 11:40:58;;;;;;;;;15.33;13.67;;;;;26.42;37.19;100321.38;5118962;27;45427;-69
2023/01/09 11:43:32;;;;;;;;;15.33;15.00;;;;;26.43;37.67;100303.16;5135423;27;46149;-68
2023/01/09 11:46:00;;;;;;;;;17.67;16.00;;;;;26.48;37.18;100313.47;5127607;27;45450;-68
2023/01/09 11:48:28;;;;;;;;;17.33;16.00;;;;;26.47;37.04;100301.72;5135860;27;45665;-68